sensor_id;sensor_type;location;lat;lon;timestamp;pressure;altitude;pressure_sealevel;temperature;humidity
6853;BME280;3465;42.144;24.722;2024-02-23T00:00:51;99691.94;;;5.72;68.19
6853;BME280;3465;42.144;24.722;2024-02-23T00:03:16;99696.63;;;5.82;68.29
6853;BME280;3465;42.144;24.722;2024-02-23T00:05:41;99698.88;;;5.91;67.30
6853;BME280;3465;42.144;24.722;2024-02-23T00:08:07;99701.09;;;5.99;67.10
6853;BME280;3465;42.144;24.722;2024-02-23T00:10:34;99706.75;;;6.07;66.12
6853;BME280;3465;42.144;24.722;2024-02-23T00:13:00;99706.66;;;5.90;66.42
6853;BME280;3465;42.144;24.722;2024-02-23T00:15:27;99701.88;;;5.81;66.70
6853;BME280;3465;42.144;24.722;2024-02-23T00:17:53;99710.03;;;5.70;67.04
6853;BME280;3465;42.144;24.722;2024-02-23T00:20:18;99700.00;;;5.64;67.10
6853;BME280;3465;42.144;24.722;2024-02-23T00:22:43;99689.69;;;5.64;67.46
6853;BME280;3465;42.144;24.722;2024-02-23T00:25:09;99673.63;;;5.58;67.13
6853;BME280;3465;42.144;24.722;2024-02-23T00:27:34;99699.34;;;5.39;68.09
6853;BME280;3465;42.144;24.722;2024-02-23T00:30:00;99698.09;;;5.28;68.61
6853;BME280;3465;42.144;24.722;2024-02-23T00:32:26;99691.88;;;5.53;67.84
6853;BME280;3465;42.144;24.722;2024-02-23T00:34:51;99683.13;;;5.15;68.39
6853;BME280;3465;42.144;24.722;2024-02-23T00:37:20;99684.69;;;5.41;67.64
6853;BME280;3465;42.144;24.722;2024-02-23T00:39:46;99678.09;;;5.54;66.97
6853;BME280;3465;42.144;24.722;2024-02-23T00:42:11;99682.03;;;5.43;66.77
6853;BME280;3465;42.144;24.722;2024-02-23T00:44:36;99670.25;;;5.57;66.35
6853;BME280;3465;42.144;24.722;2024-02-23T00:47:02;99684.44;;;5.26;68.14
6853;BME280;3465;42.144;24.722;2024-02-23T00:49:29;99681.72;;;5.08;68.66
6853;BME280;3465;42.144;24.722;2024-02-23T00:51:55;99685.00;;;5.12;68.88
6853;BME280;3465;42.144;24.722;2024-02-23T00:54:21;99674.06;;;5.07;68.71
6853;BME280;3465;42.144;24.722;2024-02-23T00:56:46;99648.19;;;5.10;67.82
6853;BME280;3465;42.144;24.722;2024-02-23T00:59:12;99681.50;;;5.35;67.60
6853;BME280;3465;42.144;24.722;2024-02-23T01:01:37;99679.53;;;5.41;67.21
6853;BME280;3465;42.144;24.722;2024-02-23T01:04:03;99674.88;;;5.29;67.98
6853;BME280;3465;42.144;24.722;2024-02-23T01:06:28;99672.88;;;5.36;67.73
6853;BME280;3465;42.144;24.722;2024-02-23T01:08:54;99671.03;;;5.39;67.24
6853;BME280;3465;42.144;24.722;2024-02-23T01:11:19;99673.63;;;5.38;67.48
6853;BME280;3465;42.144;24.722;2024-02-23T01:13:45;99666.75;;;5.38;67.23
6853;BME280;3465;42.144;24.722;2024-02-23T01:16:10;99657.03;;;5.45;66.76
6853;BME280;3465;42.144;24.722;2024-02-23T01:18:36;99660.94;;;5.13;67.82
6853;BME280;3465;42.144;24.722;2024-02-23T01:21:01;99660.81;;;5.16;67.41
6853;BME280;3465;42.144;24.722;2024-02-23T01:23:26;99645.63;;;5.30;66.64
6853;BME280;3465;42.144;24.722;2024-02-23T01:25:52;99655.06;;;5.31;67.01
6853;BME280;3465;42.144;24.722;2024-02-23T01:28:18;99644.59;;;5.14;67.82
6853;BME280;3465;42.144;24.722;2024-02-23T01:30:44;99631.88;;;5.11;67.49
6853;BME280;3465;42.144;24.722;2024-02-23T01:33:09;99648.72;;;5.18;68.08
6853;BME280;3465;42.144;24.722;2024-02-23T01:35:34;99652.59;;;5.28;67.41
6853;BME280;3465;42.144;24.722;2024-02-23T01:38:02;99655.66;;;5.16;67.84
6853;BME280;3465;42.144;24.722;2024-02-23T01:40:27;99653.63;;;5.24;67.72
6853;BME280;3465;42.144;24.722;2024-02-23T01:43:06;99652.41;;;5.33;67.04
6853;BME280;3465;42.144;24.722;2024-02-23T01:45:34;99644.53;;;5.36;67.00
6853;BME280;3465;42.144;24.722;2024-02-23T01:48:00;99647.84;;;5.39;66.33
6853;BME280;3465;42.144;24.722;2024-02-23T01:50:26;99642.03;;;5.34;66.23
6853;BME280;3465;42.144;24.722;2024-02-23T01:52:52;99647.75;;;5.21;66.41
6853;BME280;3465;42.144;24.722;2024-02-23T01:55:20;99630.38;;;5.26;66.40
6853;BME280;3465;42.144;24.722;2024-02-23T01:57:47;99616.69;;;5.25;65.49
6853;BME280;3465;42.144;24.722;2024-02-23T02:00:16;99633.41;;;4.93;67.00
6853;BME280;3465;42.144;24.722;2024-02-23T02:02:43;99635.88;;;4.96;67.16
6853;BME280;3465;42.144;24.722;2024-02-23T02:05:09;99628.47;;;4.89;67.46
6853;BME280;3465;42.144;24.722;2024-02-23T02:07:35;99633.84;;;5.04;67.25
6853;BME280;3465;42.144;24.722;2024-02-23T02:10:01;99626.25;;;5.22;66.59
6853;BME280;3465;42.144;24.722;2024-02-23T02:12:29;99618.59;;;5.20;66.29
6853;BME280;3465;42.144;24.722;2024-02-23T02:14:55;99630.00;;;5.14;66.58
6853;BME280;3465;42.144;24.722;2024-02-23T02:17:21;99627.09;;;5.22;66.02
6853;BME280;3465;42.144;24.722;2024-02-23T02:19:48;99630.84;;;5.15;66.48
6853;BME280;3465;42.144;24.722;2024-02-23T02:22:16;99632.63;;;5.13;66.09
6853;BME280;3465;42.144;24.722;2024-02-23T02:24:41;99628.75;;;5.03;66.64
6853;BME280;3465;42.144;24.722;2024-02-23T02:27:09;99624.13;;;4.91;67.04
6853;BME280;3465;42.144;24.722;2024-02-23T02:29:35;99627.81;;;4.84;67.61
6853;BME280;3465;42.144;24.722;2024-02-23T02:32:01;99629.97;;;4.94;67.41
6853;BME280;3465;42.144;24.722;2024-02-23T02:34:27;99635.44;;;4.87;67.49
6853;BME280;3465;42.144;24.722;2024-02-23T02:36:54;99634.59;;;4.86;67.81
6853;BME280;3465;42.144;24.722;2024-02-23T02:39:19;99638.09;;;4.84;68.04
6853;BME280;3465;42.144;24.722;2024-02-23T02:41:45;99620.22;;;4.81;68.31
6853;BME280;3465;42.144;24.722;2024-02-23T02:44:10;99634.59;;;4.86;68.21
6853;BME280;3465;42.144;24.722;2024-02-23T02:46:38;99632.19;;;4.82;68.11
6853;BME280;3465;42.144;24.722;2024-02-23T02:49:04;99637.88;;;4.90;67.97
6853;BME280;3465;42.144;24.722;2024-02-23T02:51:29;99636.69;;;4.77;68.60
6853;BME280;3465;42.144;24.722;2024-02-23T02:53:54;99646.78;;;4.60;69.68
6853;BME280;3465;42.144;24.722;2024-02-23T02:56:20;99648.34;;;4.64;69.13
6853;BME280;3465;42.144;24.722;2024-02-23T02:58:45;99647.69;;;4.59;69.25
6853;BME280;3465;42.144;24.722;2024-02-23T03:01:11;99648.25;;;4.67;68.67
6853;BME280;3465;42.144;24.722;2024-02-23T03:03:37;99648.09;;;4.48;70.63
6853;BME280;3465;42.144;24.722;2024-02-23T03:06:03;99650.44;;;4.33;70.43
6853;BME280;3465;42.144;24.722;2024-02-23T03:08:28;99649.59;;;4.32;70.50
6853;BME280;3465;42.144;24.722;2024-02-23T03:10:54;99644.13;;;4.18;70.67
6853;BME280;3465;42.144;24.722;2024-02-23T03:13:19;99652.94;;;4.11;70.57
6853;BME280;3465;42.144;24.722;2024-02-23T03:15:45;99650.81;;;4.22;69.69
6853;BME280;3465;42.144;24.722;2024-02-23T03:18:10;99651.31;;;4.32;69.42
6853;BME280;3465;42.144;24.722;2024-02-23T03:20:36;99659.03;;;4.32;69.35
6853;BME280;3465;42.144;24.722;2024-02-23T03:23:01;99666.44;;;3.70;71.50
6853;BME280;3465;42.144;24.722;2024-02-23T03:25:29;99641.63;;;3.69;70.89
6853;BME280;3465;42.144;24.722;2024-02-23T03:27:54;99664.72;;;3.46;72.11
6853;BME280;3465;42.144;24.722;2024-02-23T03:30:20;99666.00;;;3.57;71.32
6853;BME280;3465;42.144;24.722;2024-02-23T03:32:46;99667.69;;;3.58;71.46
6853;BME280;3465;42.144;24.722;2024-02-23T03:35:12;99655.88;;;3.77;70.69
6853;BME280;3465;42.144;24.722;2024-02-23T03:37:38;99652.88;;;3.66;71.10
6853;BME280;3465;42.144;24.722;2024-02-23T03:40:07;99649.97;;;3.75;70.36
6853;BME280;3465;42.144;24.722;2024-02-23T03:42:33;99647.47;;;3.74;71.03
6853;BME280;3465;42.144;24.722;2024-02-23T03:44:58;99657.22;;;3.64;71.33
6853;BME280;3465;42.144;24.722;2024-02-23T03:47:24;99652.91;;;3.65;71.38
6853;BME280;3465;42.144;24.722;2024-02-23T03:49:49;99663.06;;;3.68;71.00
6853;BME280;3465;42.144;24.722;2024-02-23T03:52:15;99652.69;;;3.71;70.84
6853;BME280;3465;42.144;24.722;2024-02-23T03:54:41;99660.88;;;3.57;71.73
6853;BME280;3465;42.144;24.722;2024-02-23T03:57:06;99646.53;;;3.52;71.81
6853;BME280;3465;42.144;24.722;2024-02-23T03:59:32;99656.38;;;3.64;71.37
6853;BME280;3465;42.144;24.722;2024-02-23T04:01:57;99663.59;;;3.28;73.01
6853;BME280;3465;42.144;24.722;2024-02-23T04:04:23;99651.56;;;3.30;72.76
6853;BME280;3465;42.144;24.722;2024-02-23T04:06:48;99672.16;;;3.27;72.87
6853;BME280;3465;42.144;24.722;2024-02-23T04:09:14;99657.16;;;3.41;73.09
6853;BME280;3465;42.144;24.722;2024-02-23T04:11:39;99672.63;;;3.39;72.99
6853;BME280;3465;42.144;24.722;2024-02-23T04:14:04;99656.50;;;3.34;72.98
6853;BME280;3465;42.144;24.722;2024-02-23T04:16:31;99662.56;;;3.33;73.03
6853;BME280;3465;42.144;24.722;2024-02-23T04:18:56;99659.31;;;3.53;72.96
6853;BME280;3465;42.144;24.722;2024-02-23T04:21:22;99653.81;;;3.64;71.94
6853;BME280;3465;42.144;24.722;2024-02-23T04:23:47;99655.53;;;3.63;71.92
6853;BME280;3465;42.144;24.722;2024-02-23T04:26:13;99660.78;;;3.60;72.24
6853;BME280;3465;42.144;24.722;2024-02-23T04:28:40;99668.09;;;3.71;71.68
6853;BME280;3465;42.144;24.722;2024-02-23T04:31:05;99659.56;;;3.70;71.79
6853;BME280;3465;42.144;24.722;2024-02-23T04:33:31;99635.34;;;3.53;71.57
6853;BME280;3465;42.144;24.722;2024-02-23T04:35:57;99669.06;;;3.68;71.98
6853;BME280;3465;42.144;24.722;2024-02-23T04:38:22;99665.72;;;3.66;71.57
6853;BME280;3465;42.144;24.722;2024-02-23T04:40:48;99657.59;;;3.54;72.26
6853;BME280;3465;42.144;24.722;2024-02-23T04:43:13;99660.16;;;3.77;71.95
6853;BME280;3465;42.144;24.722;2024-02-23T04:45:39;99671.41;;;3.74;71.89
6853;BME280;3465;42.144;24.722;2024-02-23T04:48:04;99663.16;;;3.65;72.54
6853;BME280;3465;42.144;24.722;2024-02-23T04:50:30;99665.53;;;3.71;71.95
6853;BME280;3465;42.144;24.722;2024-02-23T04:52:55;99668.72;;;3.77;71.95
6853;BME280;3465;42.144;24.722;2024-02-23T04:55:21;99664.94;;;3.87;71.69
6853;BME280;3465;42.144;24.722;2024-02-23T04:57:46;99661.31;;;3.93;71.10
6853;BME280;3465;42.144;24.722;2024-02-23T05:00:12;99645.97;;;3.67;72.04
6853;BME280;3465;42.144;24.722;2024-02-23T05:02:38;99665.22;;;3.55;72.96
6853;BME280;3465;42.144;24.722;2024-02-23T05:05:06;99650.88;;;3.50;72.80
6853;BME280;3465;42.144;24.722;2024-02-23T05:07:33;99667.44;;;3.66;73.11
6853;BME280;3465;42.144;24.722;2024-02-23T05:09:59;99669.66;;;3.75;72.28
6853;BME280;3465;42.144;24.722;2024-02-23T05:12:25;99669.78;;;3.72;72.50
6853;BME280;3465;42.144;24.722;2024-02-23T05:14:51;99676.84;;;3.90;71.65
6853;BME280;3465;42.144;24.722;2024-02-23T05:17:17;99677.50;;;3.95;71.53
6853;BME280;3465;42.144;24.722;2024-02-23T05:19:42;99674.50;;;4.07;71.53
6853;BME280;3465;42.144;24.722;2024-02-23T05:22:08;99679.69;;;4.05;71.70
6853;BME280;3465;42.144;24.722;2024-02-23T05:24:33;99680.53;;;4.06;71.40
6853;BME280;3465;42.144;24.722;2024-02-23T05:26:59;99676.97;;;4.10;70.98
6853;BME280;3465;42.144;24.722;2024-02-23T05:29:27;99690.88;;;4.27;70.44
6853;BME280;3465;42.144;24.722;2024-02-23T05:31:53;99684.16;;;4.23;70.23
6853;BME280;3465;42.144;24.722;2024-02-23T05:34:18;99690.53;;;3.90;71.70
6853;BME280;3465;42.144;24.722;2024-02-23T05:36:45;99680.47;;;4.07;71.70
6853;BME280;3465;42.144;24.722;2024-02-23T05:39:16;99694.63;;;4.19;71.14
6853;BME280;3465;42.144;24.722;2024-02-23T05:41:42;99691.22;;;4.18;71.08
6853;BME280;3465;42.144;24.722;2024-02-23T05:44:09;99697.53;;;4.10;72.05
6853;BME280;3465;42.144;24.722;2024-02-23T05:46:36;99688.97;;;5.81;66.02
6853;BME280;3465;42.144;24.722;2024-02-23T05:49:02;99697.41;;;7.50;59.36
6853;BME280;3465;42.144;24.722;2024-02-23T05:51:28;99695.13;;;8.91;54.93
6853;BME280;3465;42.144;24.722;2024-02-23T05:53:57;99690.53;;;9.85;51.33
6853;BME280;3465;42.144;24.722;2024-02-23T05:56:23;99696.50;;;10.29;49.60
6853;BME280;3465;42.144;24.722;2024-02-23T05:58:49;99698.84;;;10.88;48.13
6853;BME280;3465;42.144;24.722;2024-02-23T06:01:15;99702.16;;;11.44;46.13
6853;BME280;3465;42.144;24.722;2024-02-23T06:03:40;99661.47;;;11.55;44.69
6853;BME280;3465;42.144;24.722;2024-02-23T06:06:09;99697.13;;;11.67;44.90
6853;BME280;3465;42.144;24.722;2024-02-23T06:08:35;99714.03;;;12.37;42.94
6853;BME280;3465;42.144;24.722;2024-02-23T06:11:02;99719.59;;;13.29;41.40
6853;BME280;3465;42.144;24.722;2024-02-23T06:13:29;99726.75;;;13.62;39.90
6853;BME280;3465;42.144;24.722;2024-02-23T06:15:54;99720.94;;;12.62;42.17
6853;BME280;3465;42.144;24.722;2024-02-23T06:18:20;99719.22;;;13.46;39.66
6853;BME280;3465;42.144;24.722;2024-02-23T06:20:45;99720.22;;;14.13;38.89
6853;BME280;3465;42.144;24.722;2024-02-23T06:23:11;99720.31;;;15.00;36.29
6853;BME280;3465;42.144;24.722;2024-02-23T06:25:36;99726.72;;;15.81;34.65
6853;BME280;3465;42.144;24.722;2024-02-23T06:28:02;99729.16;;;16.24;33.85
6853;BME280;3465;42.144;24.722;2024-02-23T06:30:28;99731.34;;;16.70;33.16
6853;BME280;3465;42.144;24.722;2024-02-23T06:32:53;99732.50;;;15.64;34.67
6853;BME280;3465;42.144;24.722;2024-02-23T06:35:18;99736.81;;;15.22;35.36
6853;BME280;3465;42.144;24.722;2024-02-23T06:37:44;99717.50;;;15.87;33.85
6853;BME280;3465;42.144;24.722;2024-02-23T06:40:10;99721.94;;;17.26;31.28
6853;BME280;3465;42.144;24.722;2024-02-23T06:42:35;99727.06;;;17.18;31.55
6853;BME280;3465;42.144;24.722;2024-02-23T06:45:01;99723.22;;;17.51;30.96
6853;BME280;3465;42.144;24.722;2024-02-23T06:47:26;99725.38;;;19.13;28.06
6853;BME280;3465;42.144;24.722;2024-02-23T06:49:52;99722.41;;;19.16;27.63
6853;BME280;3465;42.144;24.722;2024-02-23T06:52:17;99720.06;;;19.41;27.79
6853;BME280;3465;42.144;24.722;2024-02-23T06:54:43;99715.88;;;19.03;27.69
6853;BME280;3465;42.144;24.722;2024-02-23T06:57:09;99721.09;;;18.85;27.59
6853;BME280;3465;42.144;24.722;2024-02-23T06:59:34;99714.91;;;18.40;29.44
6853;BME280;3465;42.144;24.722;2024-02-23T07:02:00;99712.09;;;19.68;27.36
6853;BME280;3465;42.144;24.722;2024-02-23T07:04:25;99720.00;;;21.12;25.15
6853;BME280;3465;42.144;24.722;2024-02-23T07:06:51;99716.09;;;21.40;24.78
6853;BME280;3465;42.144;24.722;2024-02-23T07:09:16;99715.44;;;22.11;23.83
6853;BME280;3465;42.144;24.722;2024-02-23T07:11:41;99711.94;;;22.26;23.33
6853;BME280;3465;42.144;24.722;2024-02-23T07:14:09;99713.53;;;22.90;22.84
6853;BME280;3465;42.144;24.722;2024-02-23T07:16:38;99725.22;;;21.86;23.91
6853;BME280;3465;42.144;24.722;2024-02-23T07:19:05;99722.91;;;20.26;26.75
6853;BME280;3465;42.144;24.722;2024-02-23T07:21:30;99715.03;;;21.17;25.40
6853;BME280;3465;42.144;24.722;2024-02-23T07:23:56;99706.16;;;22.23;23.98
6853;BME280;3465;42.144;24.722;2024-02-23T07:26:21;99700.94;;;22.92;23.08
6853;BME280;3465;42.144;24.722;2024-02-23T07:28:48;99702.97;;;22.43;24.22
6853;BME280;3465;42.144;24.722;2024-02-23T07:31:14;99708.88;;;22.92;22.87
6853;BME280;3465;42.144;24.722;2024-02-23T07:33:40;99706.94;;;24.07;21.69
6853;BME280;3465;42.144;24.722;2024-02-23T07:36:06;99685.28;;;23.13;22.84
6853;BME280;3465;42.144;24.722;2024-02-23T07:38:34;99695.78;;;23.89;22.19
6853;BME280;3465;42.144;24.722;2024-02-23T07:40:59;99697.50;;;24.63;21.06
6853;BME280;3465;42.144;24.722;2024-02-23T07:43:25;99697.22;;;23.77;22.00
6853;BME280;3465;42.144;24.722;2024-02-23T07:45:51;99691.34;;;22.60;23.58
6853;BME280;3465;42.144;24.722;2024-02-23T07:48:17;99697.09;;;21.37;25.75
6853;BME280;3465;42.144;24.722;2024-02-23T07:50:42;99703.75;;;19.37;29.37
6853;BME280;3465;42.144;24.722;2024-02-23T07:53:08;99700.91;;;19.03;29.48
6853;BME280;3465;42.144;24.722;2024-02-23T07:55:33;99692.22;;;18.39;31.30
6853;BME280;3465;42.144;24.722;2024-02-23T07:57:58;99689.41;;;18.50;30.33
6853;BME280;3465;42.144;24.722;2024-02-23T08:00:27;99688.34;;;18.97;30.88
6853;BME280;3465;42.144;24.722;2024-02-23T08:02:53;99691.59;;;18.82;30.95
6853;BME280;3465;42.144;24.722;2024-02-23T08:05:22;99698.41;;;18.47;31.36
6853;BME280;3465;42.144;24.722;2024-02-23T08:07:48;99695.00;;;18.28;31.64
6853;BME280;3465;42.144;24.722;2024-02-23T08:10:14;99692.34;;;18.37;31.34
6853;BME280;3465;42.144;24.722;2024-02-23T08:12:39;99684.75;;;18.71;30.53
6853;BME280;3465;42.144;24.722;2024-02-23T08:15:06;99694.53;;;18.51;31.20
6853;BME280;3465;42.144;24.722;2024-02-23T08:17:31;99694.72;;;18.68;31.80
6853;BME280;3465;42.144;24.722;2024-02-23T08:19:57;99688.69;;;18.58;31.74
6853;BME280;3465;42.144;24.722;2024-02-23T08:22:22;99687.22;;;18.45;31.23
6853;BME280;3465;42.144;24.722;2024-02-23T08:24:49;99685.56;;;17.98;32.85
6853;BME280;3465;42.144;24.722;2024-02-23T08:27:14;99680.91;;;18.19;32.79
6853;BME280;3465;42.144;24.722;2024-02-23T08:29:39;99672.59;;;18.43;32.50
6853;BME280;3465;42.144;24.722;2024-02-23T08:32:06;99669.59;;;18.19;33.42
6853;BME280;3465;42.144;24.722;2024-02-23T08:34:32;99677.81;;;18.33;33.45
6853;BME280;3465;42.144;24.722;2024-02-23T08:36:57;99682.75;;;18.09;33.00
6853;BME280;3465;42.144;24.722;2024-02-23T08:39:22;99672.56;;;17.87;33.33
6853;BME280;3465;42.144;24.722;2024-02-23T08:41:48;99672.25;;;18.09;33.38
6853;BME280;3465;42.144;24.722;2024-02-23T08:44:13;99671.63;;;17.88;33.89
6853;BME280;3465;42.144;24.722;2024-02-23T08:46:39;99673.63;;;18.13;33.53
6853;BME280;3465;42.144;24.722;2024-02-23T08:49:05;99664.72;;;18.24;33.64
6853;BME280;3465;42.144;24.722;2024-02-23T08:51:30;99660.34;;;18.42;33.09
6853;BME280;3465;42.144;24.722;2024-02-23T08:53:56;99670.81;;;18.24;33.35
6853;BME280;3465;42.144;24.722;2024-02-23T08:56:28;99659.56;;;18.32;33.08
6853;BME280;3465;42.144;24.722;2024-02-23T08:58:53;99672.03;;;18.30;32.46
6853;BME280;3465;42.144;24.722;2024-02-23T09:01:19;99677.84;;;17.78;34.30
6853;BME280;3465;42.144;24.722;2024-02-23T09:03:45;99669.25;;;17.85;34.22
6853;BME280;3465;42.144;24.722;2024-02-23T09:06:10;99661.50;;;18.03;34.45
6853;BME280;3465;42.144;24.722;2024-02-23T09:08:54;99664.00;;;18.31;33.35
6853;BME280;3465;42.144;24.722;2024-02-23T09:11:19;99669.06;;;18.52;32.97
6853;BME280;3465;42.144;24.722;2024-02-23T09:13:45;99658.66;;;18.78;33.59
6853;BME280;3465;42.144;24.722;2024-02-23T09:16:10;99653.72;;;19.10;32.08
6853;BME280;3465;42.144;24.722;2024-02-23T09:18:36;99625.91;;;18.90;32.16
6853;BME280;3465;42.144;24.722;2024-02-23T09:21:02;99654.06;;;19.07;31.58
6853;BME280;3465;42.144;24.722;2024-02-23T09:23:27;99651.63;;;18.96;32.33
6853;BME280;3465;42.144;24.722;2024-02-23T09:25:53;99657.03;;;18.49;32.66
6853;BME280;3465;42.144;24.722;2024-02-23T09:28:18;99648.03;;;18.42;33.35
6853;BME280;3465;42.144;24.722;2024-02-23T09:30:44;99646.06;;;18.27;32.96
6853;BME280;3465;42.144;24.722;2024-02-23T09:33:09;99643.97;;;18.85;32.59
6853;BME280;3465;42.144;24.722;2024-02-23T09:35:35;99642.25;;;18.93;32.71
6853;BME280;3465;42.144;24.722;2024-02-23T09:38:00;99632.63;;;19.37;31.83
6853;BME280;3465;42.144;24.722;2024-02-23T09:40:26;99630.47;;;18.70;32.65
6853;BME280;3465;42.144;24.722;2024-02-23T09:42:56;99623.13;;;17.73;34.12
6853;BME280;3465;42.144;24.722;2024-02-23T09:45:24;99615.09;;;18.75;33.21
6853;BME280;3465;42.144;24.722;2024-02-23T09:47:50;99613.81;;;18.97;32.71
6853;BME280;3465;42.144;24.722;2024-02-23T09:50:17;99600.78;;;19.74;31.13
6853;BME280;3465;42.144;24.722;2024-02-23T09:52:45;99607.81;;;19.65;31.57
6853;BME280;3465;42.144;24.722;2024-02-23T09:55:12;99615.25;;;19.09;32.08
6853;BME280;3465;42.144;24.722;2024-02-23T09:57:37;99605.25;;;18.50;32.86
6853;BME280;3465;42.144;24.722;2024-02-23T10:00:03;99595.22;;;19.16;32.85
6853;BME280;3465;42.144;24.722;2024-02-23T10:02:32;99583.59;;;19.62;31.67
6853;BME280;3465;42.144;24.722;2024-02-23T10:04:59;99566.22;;;19.51;31.21
6853;BME280;3465;42.144;24.722;2024-02-23T10:07:26;99581.22;;;20.10;31.36
6853;BME280;3465;42.144;24.722;2024-02-23T10:09:52;99588.81;;;20.55;30.04
6853;BME280;3465;42.144;24.722;2024-02-23T10:12:18;99592.91;;;20.49;29.52
6853;BME280;3465;42.144;24.722;2024-02-23T10:14:43;99573.53;;;20.25;30.62
6853;BME280;3465;42.144;24.722;2024-02-23T10:17:09;99538.88;;;20.11;29.63
6853;BME280;3465;42.144;24.722;2024-02-23T10:19:34;99576.72;;;20.28;30.12
6853;BME280;3465;42.144;24.722;2024-02-23T10:22:00;99572.00;;;20.14;29.99
6853;BME280;3465;42.144;24.722;2024-02-23T10:24:26;99572.97;;;20.55;30.01
6853;BME280;3465;42.144;24.722;2024-02-23T10:26:51;99565.50;;;20.00;30.33
6853;BME280;3465;42.144;24.722;2024-02-23T10:29:17;99558.78;;;20.40;29.84
6853;BME280;3465;42.144;24.722;2024-02-23T10:31:46;99561.56;;;19.71;30.07
6853;BME280;3465;42.144;24.722;2024-02-23T10:34:14;99564.84;;;18.86;32.49
6853;BME280;3465;42.144;24.722;2024-02-23T10:36:43;99550.94;;;19.11;31.70
6853;BME280;3465;42.144;24.722;2024-02-23T10:39:10;99554.19;;;19.49;31.65
6853;BME280;3465;42.144;24.722;2024-02-23T10:41:36;99549.22;;;19.71;31.42
6853;BME280;3465;42.144;24.722;2024-02-23T10:44:05;99542.75;;;19.91;30.73
6853;BME280;3465;42.144;24.722;2024-02-23T10:46:32;99537.41;;;19.50;31.36
6853;BME280;3465;42.144;24.722;2024-02-23T10:48:58;99536.94;;;19.80;31.53
6853;BME280;3465;42.144;24.722;2024-02-23T10:51:24;99542.63;;;19.42;32.20
6853;BME280;3465;42.144;24.722;2024-02-23T10:53:52;99534.19;;;18.77;32.90
6853;BME280;3465;42.144;24.722;2024-02-23T10:56:18;99521.69;;;19.66;31.78
6853;BME280;3465;42.144;24.722;2024-02-23T10:58:43;99516.53;;;18.52;33.05
6853;BME280;3465;42.144;24.722;2024-02-23T11:01:09;99523.09;;;19.52;31.68
6853;BME280;3465;42.144;24.722;2024-02-23T11:03:37;99516.59;;;19.38;32.03
6853;BME280;3465;42.144;24.722;2024-02-23T11:06:07;99507.31;;;19.86;31.41
6853;BME280;3465;42.144;24.722;2024-02-23T11:08:33;99484.44;;;19.61;31.33
6853;BME280;3465;42.144;24.722;2024-02-23T11:11:10;99504.19;;;20.32;30.34
6853;BME280;3465;42.144;24.722;2024-02-23T11:13:37;99494.72;;;19.46;29.52
6853;BME280;3465;42.144;24.722;2024-02-23T11:16:04;99482.06;;;19.75;30.05
6853;BME280;3465;42.144;24.722;2024-02-23T11:18:30;99491.31;;;20.29;30.32
6853;BME280;3465;42.144;24.722;2024-02-23T11:21:01;99474.19;;;20.41;29.60
6853;BME280;3465;42.144;24.722;2024-02-23T11:23:39;99489.69;;;20.28;29.80
6853;BME280;3465;42.144;24.722;2024-02-23T11:26:06;99477.97;;;19.89;29.83
6853;BME280;3465;42.144;24.722;2024-02-23T11:29:12;99487.94;;;19.69;30.78
6853;BME280;3465;42.144;24.722;2024-02-23T11:31:51;99479.19;;;20.68;29.65
6853;BME280;3465;42.144;24.722;2024-02-23T11:34:24;99477.16;;;21.35;27.33
6853;BME280;3465;42.144;24.722;2024-02-23T11:36:51;99474.44;;;21.67;27.45
6853;BME280;3465;42.144;24.722;2024-02-23T11:39:19;99476.34;;;20.94;28.31
6853;BME280;3465;42.144;24.722;2024-02-23T11:41:50;99471.97;;;21.57;27.61
6853;BME280;3465;42.144;24.722;2024-02-23T11:44:16;99475.22;;;20.96;28.47
6853;BME280;3465;42.144;24.722;2024-02-23T11:46:46;99471.31;;;21.47;28.19
6853;BME280;3465;42.144;24.722;2024-02-23T11:49:12;99468.56;;;21.79;27.65
6853;BME280;3465;42.144;24.722;2024-02-23T11:51:38;99467.78;;;20.52;28.63
6853;BME280;3465;42.144;24.722;2024-02-23T11:54:03;99468.28;;;20.63;29.47
6853;BME280;3465;42.144;24.722;2024-02-23T11:56:29;99469.91;;;21.37;28.35
6853;BME280;3465;42.144;24.722;2024-02-23T11:58:55;99454.03;;;21.83;27.26
6853;BME280;3465;42.144;24.722;2024-02-23T12:01:21;99456.59;;;21.61;27.56
6853;BME280;3465;42.144;24.722;2024-02-23T12:03:47;99459.25;;;21.61;27.88
6853;BME280;3465;42.144;24.722;2024-02-23T12:06:14;99458.88;;;22.11;26.24
6853;BME280;3465;42.144;24.722;2024-02-23T12:08:43;99459.66;;;21.34;27.31
6853;BME280;3465;42.144;24.722;2024-02-23T12:11:11;99449.44;;;20.26;29.02
6853;BME280;3465;42.144;24.722;2024-02-23T12:13:39;99443.38;;;20.58;28.69
6853;BME280;3465;42.144;24.722;2024-02-23T12:16:07;99442.50;;;21.30;27.72
6853;BME280;3465;42.144;24.722;2024-02-23T12:18:35;99429.75;;;21.80;27.49
6853;BME280;3465;42.144;24.722;2024-02-23T12:21:02;99433.16;;;21.97;26.76
6853;BME280;3465;42.144;24.722;2024-02-23T12:23:48;99433.75;;;21.21;27.90
6853;BME280;3465;42.144;24.722;2024-02-23T12:26:16;99431.50;;;21.02;28.15
6853;BME280;3465;42.144;24.722;2024-02-23T12:28:42;99423.47;;;21.42;27.82
6853;BME280;3465;42.144;24.722;2024-02-23T12:31:08;99417.06;;;22.06;26.90
6853;BME280;3465;42.144;24.722;2024-02-23T12:33:35;99419.31;;;22.17;26.53
6853;BME280;3465;42.144;24.722;2024-02-23T12:36:02;99421.41;;;21.60;26.95
6853;BME280;3465;42.144;24.722;2024-02-23T12:38:27;99406.53;;;21.59;26.92
6853;BME280;3465;42.144;24.722;2024-02-23T12:40:53;99394.47;;;21.96;27.00
6853;BME280;3465;42.144;24.722;2024-02-23T12:43:19;99403.44;;;22.40;25.98
6853;BME280;3465;42.144;24.722;2024-02-23T12:45:50;99399.25;;;22.00;26.72
6853;BME280;3465;42.144;24.722;2024-02-23T12:48:16;99401.72;;;21.71;26.72
6853;BME280;3465;42.144;24.722;2024-02-23T12:50:42;99401.75;;;21.16;27.87
6853;BME280;3465;42.144;24.722;2024-02-23T12:53:10;99393.88;;;21.85;26.93
6853;BME280;3465;42.144;24.722;2024-02-23T12:55:38;99380.28;;;21.58;26.63
6853;BME280;3465;42.144;24.722;2024-02-23T12:58:03;99379.13;;;21.99;26.53
6853;BME280;3465;42.144;24.722;2024-02-23T13:00:29;99375.59;;;22.07;26.86
6853;BME280;3465;42.144;24.722;2024-02-23T13:02:54;99376.38;;;21.84;26.49
6853;BME280;3465;42.144;24.722;2024-02-23T13:05:20;99382.09;;;22.41;26.22
6853;BME280;3465;42.144;24.722;2024-02-23T13:07:47;99381.78;;;22.82;25.70
6853;BME280;3465;42.144;24.722;2024-02-23T13:10:12;99380.03;;;22.89;24.97